Archival Weather

Longyear

Longyear, Svalbard (ENSB)

Report from: Tuesday, September 19, 2023 4:20 AM UTC
Current time: Monday, June 17, 2024 10:08 AM UTC

Current weather – Weather history – Daily summaries
Weather forecast

Temperature-2.0°C (28.4°F)
Wind chill-5.5°C (22.2°F)
Dew point-6.0°C (21.2°F)
Winds 5 kts (2.6 m/s, 5.8 mph) East-Southeast (120°)
Visibility6.2 mi. (10 km)
Clouds Few clouds 3,000 ft. (914 m)
Ceiling: Broken clouds 5,000 ft. (1,524 m)
Altimeter30.06 in.Hg (1018 mB)
Relative humidity74 %
Density altitude-2,187 ft. (-666 m)
Flight conditions Visual Meteorological Conditions
Raw dataENSB 190420Z 12005KT 9999 FEW030 BKN050 M02/M06 Q1018 RMK WIND 1400FT 06006KT
An error has occurred. This application may no longer respond until reloaded. Reload 🗙